createdAt,value
2018-05-25T00:00:05.318Z,15.20
2018-05-25T00:01:05.158Z,15.20
2018-05-25T00:02:05.215Z,15.20
2018-05-25T00:03:05.624Z,15.20
2018-05-25T00:04:05.358Z,15.20
2018-05-25T00:05:05.239Z,15.20
2018-05-25T00:06:05.495Z,15.20
2018-05-25T00:07:05.125Z,15.20
2018-05-25T00:08:05.249Z,15.20
2018-05-25T00:09:05.415Z,15.20
2018-05-25T00:10:05.396Z,15.20
2018-05-25T00:11:05.659Z,15.20
2018-05-25T00:12:05.530Z,15.20
2018-05-25T00:13:04.994Z,15.20
2018-05-25T00:14:05.150Z,15.20
2018-05-25T00:15:04.905Z,15.20
2018-05-25T00:16:05.300Z,15.20
2018-05-25T00:17:05.708Z,15.20
2018-05-25T00:18:05.781Z,15.20
2018-05-25T00:19:05.414Z,15.20
2018-05-25T00:20:05.445Z,15.20
2018-05-25T00:21:05.551Z,15.20
2018-05-25T00:22:05.456Z,15.20
2018-05-25T00:23:05.223Z,15.20
2018-05-25T00:24:04.786Z,15.20
2018-05-25T00:25:04.904Z,15.20
2018-05-25T00:26:05.482Z,15.20
2018-05-25T00:27:04.937Z,15.20
2018-05-25T00:28:05.021Z,15.20
2018-05-25T00:29:05.044Z,15.20
2018-05-25T00:30:05.116Z,15.20
2018-05-25T00:31:04.831Z,15.20
2018-05-25T00:32:05.625Z,15.10
2018-05-25T00:33:05.373Z,15.20
2018-05-25T00:34:04.816Z,15.20
2018-05-25T00:35:05.060Z,15.20
2018-05-25T00:36:05.085Z,15.10
2018-05-25T00:37:04.889Z,15.10
2018-05-25T00:38:04.850Z,15.10
2018-05-25T00:39:04.892Z,15.20
2018-05-25T00:40:05.486Z,15.10
2018-05-25T00:41:05.309Z,15.10
2018-05-25T00:42:05.112Z,15.10
2018-05-25T00:43:05.083Z,15.10
2018-05-25T00:44:05.276Z,15.10
2018-05-25T00:45:05.074Z,15.10
2018-05-25T00:46:04.980Z,15.10
2018-05-25T00:47:05.742Z,15.10
2018-05-25T00:48:05.644Z,15.10
2018-05-25T00:49:05.467Z,15.10
2018-05-25T00:50:05.363Z,15.10
2018-05-25T00:51:05.034Z,15.10
2018-05-25T00:52:05.084Z,15.10
2018-05-25T00:53:05.123Z,15.10
2018-05-25T00:54:05.157Z,15.10
2018-05-25T00:55:04.826Z,15.10
2018-05-25T00:56:05.708Z,15.10
2018-05-25T00:57:04.712Z,15.10
2018-05-25T00:58:05.722Z,15.10
2018-05-25T00:59:05.228Z,15.10
2018-05-25T01:00:05.334Z,15.10
2018-05-25T01:01:05.686Z,15.10
2018-05-25T01:02:05.558Z,15.10
2018-05-25T01:03:04.716Z,15.10
2018-05-25T01:04:05.290Z,15.10
2018-05-25T01:05:05.362Z,15.10
2018-05-25T01:06:05.628Z,15.10
2018-05-25T01:07:05.691Z,15.00
2018-05-25T01:08:05.670Z,15.00
2018-05-25T01:09:04.842Z,15.00
2018-05-25T01:10:04.646Z,15.00
2018-05-25T01:11:04.694Z,15.00
2018-05-25T01:12:05.543Z,15.00
2018-05-25T01:13:05.353Z,15.00
2018-05-25T01:14:05.222Z,15.00
2018-05-25T01:15:04.944Z,15.00
2018-05-25T01:16:04.852Z,15.00
2018-05-25T01:17:05.084Z,15.00
2018-05-25T01:18:05.622Z,15.00
2018-05-25T01:19:05.088Z,15.00
2018-05-25T01:20:05.260Z,15.00
2018-05-25T01:21:05.576Z,15.00
2018-05-25T01:22:04.814Z,15.00
2018-05-25T01:23:05.148Z,15.00
2018-05-25T01:24:04.774Z,15.00
2018-05-25T01:25:05.341Z,15.00
2018-05-25T01:26:05.397Z,15.00
2018-05-25T01:27:06.391Z,15.00
2018-05-25T01:28:05.772Z,15.00
2018-05-25T01:29:05.462Z,15.00
2018-05-25T01:30:05.572Z,15.00
2018-05-25T01:31:05.540Z,15.00
2018-05-25T01:32:05.610Z,15.00
2018-05-25T01:33:05.563Z,15.00
2018-05-25T01:34:05.080Z,15.00
2018-05-25T01:35:05.082Z,15.00
2018-05-25T01:36:05.069Z,15.00
2018-05-25T01:37:04.822Z,15.00
2018-05-25T01:38:05.620Z,15.00
2018-05-25T01:39:05.238Z,15.00
2018-05-25T01:40:05.123Z,15.00
2018-05-25T01:41:06.041Z,15.00
2018-05-25T01:42:04.923Z,15.00
2018-05-25T01:43:04.936Z,15.00
2018-05-25T01:44:05.611Z,15.00
2018-05-25T01:45:05.212Z,15.00
2018-05-25T01:46:04.730Z,15.00
2018-05-25T01:47:05.448Z,15.00
2018-05-25T01:48:05.271Z,15.00
2018-05-25T01:49:05.039Z,15.00
2018-05-25T01:50:04.750Z,15.00
2018-05-25T01:51:04.936Z,15.00
2018-05-25T01:52:04.968Z,15.00
2018-05-25T01:53:05.542Z,15.00
2018-05-25T01:54:05.423Z,15.00
2018-05-25T01:55:05.524Z,15.00
2018-05-25T01:56:05.474Z,15.00
2018-05-25T01:57:05.534Z,15.00
2018-05-25T01:58:05.151Z,15.00
2018-05-25T01:59:05.350Z,15.00
2018-05-25T02:00:05.544Z,15.00
2018-05-25T02:01:05.602Z,15.00
2018-05-25T02:02:04.812Z,15.00
2018-05-25T02:03:05.345Z,15.00
2018-05-25T02:04:05.729Z,15.00
2018-05-25T02:05:05.734Z,15.00
2018-05-25T02:06:05.357Z,15.00
2018-05-25T02:07:05.238Z,15.00
2018-05-25T02:08:05.303Z,15.00
2018-05-25T02:09:05.651Z,15.00
2018-05-25T02:10:04.653Z,15.00
2018-05-25T02:11:05.394Z,15.00
2018-05-25T02:12:04.985Z,15.00
2018-05-25T02:13:05.126Z,15.00
2018-05-25T02:14:04.657Z,15.00
2018-05-25T02:15:04.657Z,15.00
2018-05-25T02:16:05.414Z,15.00
2018-05-25T02:17:05.402Z,15.00
2018-05-25T02:18:05.216Z,15.00
2018-05-25T02:19:05.309Z,15.00
2018-05-25T02:20:04.960Z,15.00
2018-05-25T02:21:04.820Z,14.90
2018-05-25T02:22:04.812Z,15.00
2018-05-25T02:23:10.094Z,15.00
2018-05-25T02:24:04.765Z,14.90
2018-05-25T02:25:05.269Z,14.90
2018-05-25T02:26:05.017Z,14.90
2018-05-25T02:27:05.586Z,14.90
2018-05-25T02:28:05.085Z,14.90
2018-05-25T02:29:05.463Z,14.90
2018-05-25T02:30:05.469Z,14.90
2018-05-25T02:31:05.344Z,14.90
2018-05-25T02:32:05.077Z,14.90
2018-05-25T02:33:05.164Z,15.00
2018-05-25T02:34:05.458Z,15.00
2018-05-25T02:35:04.971Z,14.90
2018-05-25T02:36:05.518Z,15.00
2018-05-25T02:37:05.725Z,15.00
2018-05-25T02:38:04.695Z,15.00
2018-05-25T02:39:05.640Z,15.00
2018-05-25T02:40:05.710Z,15.00
2018-05-25T02:41:04.768Z,15.00
2018-05-25T02:42:05.617Z,15.00
2018-05-25T02:43:05.576Z,15.00
2018-05-25T02:44:05.510Z,15.00
2018-05-25T02:45:05.270Z,15.00
2018-05-25T02:46:05.360Z,15.00
2018-05-25T02:47:05.554Z,15.00
2018-05-25T02:48:05.532Z,15.00
2018-05-25T02:49:05.109Z,15.00
2018-05-25T02:50:04.964Z,15.00
2018-05-25T02:51:05.035Z,15.00
2018-05-25T02:52:04.957Z,14.90
2018-05-25T02:53:05.024Z,15.00
2018-05-25T02:54:05.549Z,14.90
2018-05-25T02:55:05.636Z,14.90
2018-05-25T02:56:05.344Z,14.90
2018-05-25T02:57:05.062Z,14.90
2018-05-25T02:58:04.867Z,15.00
2018-05-25T02:59:05.006Z,14.90
2018-05-25T03:00:05.553Z,14.90
2018-05-25T03:01:04.777Z,14.90
2018-05-25T03:02:05.353Z,14.90
2018-05-25T03:03:04.866Z,15.00
2018-05-25T03:04:05.614Z,14.90
2018-05-25T03:05:05.476Z,14.90
2018-05-25T03:06:04.672Z,14.90
2018-05-25T03:07:04.857Z,14.90
2018-05-25T03:08:05.411Z,14.90
2018-05-25T03:09:05.173Z,14.90
2018-05-25T03:10:04.992Z,14.90
2018-05-25T03:11:04.783Z,14.90
2018-05-25T03:12:04.957Z,14.90
2018-05-25T03:13:05.047Z,14.90
2018-05-25T03:14:04.820Z,14.90
2018-05-25T03:15:05.476Z,14.90
2018-05-25T03:16:05.172Z,14.90
2018-05-25T03:17:04.830Z,14.90
2018-05-25T03:18:05.586Z,14.90
2018-05-25T03:19:05.604Z,14.90
2018-05-25T03:20:05.507Z,14.90
2018-05-25T03:21:10.188Z,14.90
2018-05-25T03:22:05.129Z,14.90
2018-05-25T03:23:05.449Z,14.90
2018-05-25T03:24:05.606Z,14.90
2018-05-25T03:25:05.593Z,14.90
2018-05-25T03:26:05.429Z,14.90
2018-05-25T03:27:05.443Z,14.90
2018-05-25T03:28:04.610Z,14.90
2018-05-25T03:29:05.588Z,14.90
2018-05-25T03:30:04.697Z,14.90
2018-05-25T03:31:05.521Z,14.90
2018-05-25T03:32:05.265Z,14.90
2018-05-25T03:33:04.792Z,14.90
2018-05-25T03:34:04.971Z,14.90
2018-05-25T03:35:05.040Z,14.90
2018-05-25T03:36:04.919Z,14.90
2018-05-25T03:37:05.000Z,14.90
2018-05-25T03:38:05.036Z,14.90
2018-05-25T03:39:04.655Z,14.90
2018-05-25T03:40:04.898Z,14.90
2018-05-25T03:41:05.408Z,14.90
2018-05-25T03:42:05.048Z,14.90
2018-05-25T03:43:05.094Z,14.90
2018-05-25T03:44:05.094Z,14.90
2018-05-25T03:45:05.188Z,14.90
2018-05-25T03:46:05.176Z,14.90
2018-05-25T03:47:04.952Z,14.90
2018-05-25T03:48:05.486Z,14.90
2018-05-25T03:49:05.090Z,14.90
2018-05-25T03:50:05.519Z,14.90
2018-05-25T03:51:04.960Z,14.90
2018-05-25T03:52:05.330Z,14.80
2018-05-25T03:53:05.193Z,14.80
2018-05-25T03:54:04.882Z,14.80
2018-05-25T03:55:05.420Z,14.80
2018-05-25T03:56:05.468Z,14.80
2018-05-25T03:57:05.099Z,14.80
2018-05-25T03:58:05.582Z,14.80
2018-05-25T03:59:05.542Z,14.80
2018-05-25T04:00:04.740Z,14.80
2018-05-25T04:01:04.903Z,14.80
2018-05-25T04:02:04.756Z,14.80
2018-05-25T04:03:04.880Z,14.80
2018-05-25T04:04:04.785Z,14.80
2018-05-25T04:05:04.898Z,14.80
2018-05-25T04:06:04.674Z,14.80
2018-05-25T04:07:05.280Z,14.80
2018-05-25T04:08:05.161Z,14.80
2018-05-25T04:09:05.405Z,14.80
2018-05-25T04:10:04.907Z,14.80
2018-05-25T04:11:05.257Z,14.80
2018-05-25T04:12:05.021Z,14.80
2018-05-25T04:13:05.464Z,14.80
2018-05-25T04:14:05.431Z,14.90
2018-05-25T04:15:05.494Z,14.80
2018-05-25T04:16:05.175Z,14.80
2018-05-25T04:17:04.852Z,14.80
2018-05-25T04:18:05.097Z,14.80
2018-05-25T04:19:05.215Z,14.80
2018-05-25T04:20:05.014Z,14.80
2018-05-25T04:21:05.088Z,14.80
2018-05-25T04:22:05.129Z,14.90
2018-05-25T04:23:05.532Z,14.90
2018-05-25T04:24:04.715Z,14.90
2018-05-25T04:25:04.918Z,14.90
2018-05-25T04:26:05.355Z,14.90
2018-05-25T04:27:05.025Z,14.90
2018-05-25T04:28:04.877Z,14.90
2018-05-25T04:29:04.856Z,14.90
2018-05-25T04:30:05.790Z,14.90
2018-05-25T04:31:05.000Z,14.90
2018-05-25T04:32:05.153Z,14.90
2018-05-25T04:33:05.048Z,15.00
2018-05-25T04:34:04.830Z,15.00
2018-05-25T04:35:05.335Z,15.00
2018-05-25T04:36:05.253Z,15.00
2018-05-25T04:37:05.536Z,15.00
2018-05-25T04:38:05.342Z,15.00
2018-05-25T04:39:05.645Z,15.00
2018-05-25T04:40:05.499Z,15.00
2018-05-25T04:41:04.948Z,15.00
2018-05-25T04:42:05.523Z,15.10
2018-05-25T04:43:05.697Z,15.10
2018-05-25T04:44:05.614Z,15.10
2018-05-25T04:45:05.358Z,15.10
2018-05-25T04:46:05.287Z,15.10
2018-05-25T04:47:05.102Z,15.10
2018-05-25T04:48:04.900Z,15.10
2018-05-25T04:49:05.050Z,15.10
2018-05-25T04:50:04.924Z,15.10
2018-05-25T04:51:05.126Z,15.20
2018-05-25T04:52:04.993Z,15.20
2018-05-25T04:53:05.072Z,15.20
2018-05-25T04:54:05.550Z,15.20
2018-05-25T04:55:04.757Z,15.20
2018-05-25T04:56:05.615Z,15.20
2018-05-25T04:57:05.182Z,15.20
2018-05-25T04:58:05.061Z,15.30
2018-05-25T04:59:05.059Z,15.30
2018-05-25T05:00:04.695Z,15.30
2018-05-25T05:01:05.363Z,15.30
2018-05-25T05:02:05.470Z,15.30
2018-05-25T05:03:05.180Z,15.30
2018-05-25T05:04:05.200Z,15.30
2018-05-25T05:05:04.953Z,15.40
2018-05-25T05:06:04.891Z,15.40
2018-05-25T05:07:04.827Z,15.40
2018-05-25T05:08:04.897Z,15.40
2018-05-25T05:09:04.919Z,15.40
2018-05-25T05:10:05.147Z,15.40
2018-05-25T05:11:04.689Z,15.40
2018-05-25T05:12:05.201Z,15.40
2018-05-25T05:13:05.752Z,15.40
2018-05-25T05:14:05.589Z,15.40
2018-05-25T05:15:05.311Z,15.50
2018-05-25T05:16:05.006Z,15.50
2018-05-25T05:17:04.823Z,15.50
2018-05-25T05:18:04.945Z,15.50
2018-05-25T05:19:04.842Z,15.50
2018-05-25T05:20:04.838Z,15.50
2018-05-25T05:21:05.600Z,15.50
2018-05-25T05:22:10.241Z,15.60
2018-05-25T05:23:05.171Z,15.60
2018-05-25T05:24:05.111Z,15.60
2018-05-25T05:25:04.766Z,15.60
2018-05-25T05:26:04.739Z,15.60
2018-05-25T05:27:05.458Z,15.70
2018-05-25T05:28:04.668Z,15.70
2018-05-25T05:29:05.560Z,15.70
2018-05-25T05:30:05.273Z,15.70
2018-05-25T05:31:05.485Z,15.80
2018-05-25T05:32:08.442Z,15.80
2018-05-25T05:33:05.401Z,15.80
2018-05-25T05:34:05.015Z,15.80
2018-05-25T05:35:05.207Z,15.90
2018-05-25T05:36:05.014Z,15.90
2018-05-25T05:37:05.275Z,15.90
2018-05-25T05:38:04.796Z,15.90
2018-05-25T05:39:04.921Z,16.00
2018-05-25T05:40:05.552Z,16.00
2018-05-25T05:41:05.667Z,16.00
2018-05-25T05:42:05.674Z,16.00
2018-05-25T05:43:05.714Z,16.10
2018-05-25T05:44:05.543Z,16.10
2018-05-25T05:45:05.532Z,16.10
2018-05-25T05:46:05.392Z,16.10
2018-05-25T05:47:04.925Z,16.20
2018-05-25T05:48:04.893Z,16.20
2018-05-25T05:49:05.371Z,16.20
2018-05-25T05:50:05.010Z,16.30
2018-05-25T05:51:05.008Z,16.40
2018-05-25T05:52:04.879Z,16.50
2018-05-25T05:53:05.330Z,16.70
2018-05-25T05:54:05.228Z,16.90
2018-05-25T05:55:05.486Z,17.10
2018-05-25T05:56:05.120Z,17.30
2018-05-25T05:57:05.463Z,17.50
2018-05-25T05:58:05.382Z,17.60
2018-05-25T05:59:05.199Z,17.70
2018-05-25T06:00:05.090Z,17.80
2018-05-25T06:01:04.852Z,17.90
2018-05-25T06:02:04.902Z,18.00
2018-05-25T06:03:05.547Z,18.00
2018-05-25T06:04:05.410Z,18.00
2018-05-25T06:05:05.630Z,18.00
2018-05-25T06:06:05.353Z,18.10
2018-05-25T06:07:05.523Z,18.00
2018-05-25T06:08:05.325Z,18.00
2018-05-25T06:09:04.947Z,18.00
2018-05-25T06:10:04.717Z,18.00
2018-05-25T06:11:04.845Z,18.00
2018-05-25T06:12:04.817Z,17.90
2018-05-25T06:13:05.386Z,17.90
2018-05-25T06:14:05.093Z,17.90
2018-05-25T06:15:05.713Z,17.90
2018-05-25T06:16:05.572Z,17.90
2018-05-25T06:17:05.536Z,17.90
2018-05-25T06:18:05.589Z,17.90
2018-05-25T06:19:04.798Z,17.90
2018-05-25T06:20:05.054Z,17.90
2018-05-25T06:21:04.912Z,17.90
2018-05-25T06:22:05.559Z,17.90
2018-05-25T06:23:04.845Z,17.90
2018-05-25T06:24:05.270Z,17.90
2018-05-25T06:25:05.266Z,18.00
2018-05-25T06:26:05.518Z,18.00
2018-05-25T06:27:05.346Z,18.00
2018-05-25T06:28:05.489Z,18.00
2018-05-25T06:29:06.100Z,18.00
2018-05-25T06:30:05.583Z,18.00
2018-05-25T06:31:04.691Z,18.00
2018-05-25T06:32:05.490Z,18.10
2018-05-25T06:33:05.243Z,18.10
2018-05-25T06:34:04.964Z,18.10
2018-05-25T06:35:05.165Z,18.10
2018-05-25T06:36:05.114Z,18.20
2018-05-25T06:37:05.562Z,18.20
2018-05-25T06:38:05.263Z,18.20
2018-05-25T06:39:05.300Z,18.30
2018-05-25T06:40:05.020Z,18.30
2018-05-25T06:41:04.790Z,18.40
2018-05-25T06:42:04.947Z,18.40
2018-05-25T06:43:05.627Z,18.50
2018-05-25T06:44:04.816Z,18.60
2018-05-25T06:45:04.801Z,18.80
2018-05-25T06:46:05.661Z,18.90
2018-05-25T06:47:04.793Z,18.90
2018-05-25T06:48:06.855Z,19.00
2018-05-25T06:49:05.630Z,19.00
2018-05-25T06:50:05.623Z,19.00
2018-05-25T06:51:05.328Z,19.10
2018-05-25T06:52:05.576Z,19.20
2018-05-25T06:53:05.337Z,19.30
2018-05-25T06:54:05.520Z,19.40
2018-05-25T06:55:05.727Z,19.50
2018-05-25T06:56:04.804Z,19.60
2018-05-25T06:57:05.546Z,19.60
2018-05-25T06:58:05.168Z,19.70
2018-05-25T06:59:05.097Z,19.70
2018-05-25T07:00:05.399Z,19.70
2018-05-25T07:01:05.144Z,19.70
2018-05-25T07:02:05.640Z,19.60
2018-05-25T07:03:04.904Z,19.60
2018-05-25T07:04:05.634Z,19.60
2018-05-25T07:05:04.752Z,19.50
2018-05-25T07:06:04.893Z,19.50
2018-05-25T07:07:04.809Z,19.50
2018-05-25T07:08:04.951Z,19.40
2018-05-25T07:09:05.743Z,19.40
2018-05-25T07:10:05.560Z,19.40
2018-05-25T07:11:05.099Z,19.30
2018-05-25T07:12:05.766Z,19.30
2018-05-25T07:13:05.384Z,19.30
2018-05-25T07:14:04.750Z,19.30
2018-05-25T07:15:04.767Z,19.30
2018-05-25T07:16:04.787Z,19.20
2018-05-25T07:17:05.716Z,19.20
2018-05-25T07:18:05.324Z,19.20
2018-05-25T07:19:05.414Z,19.20
2018-05-25T07:20:05.244Z,19.20
2018-05-25T07:21:04.734Z,19.20
2018-05-25T07:22:04.765Z,19.20
2018-05-25T07:23:05.486Z,19.20
2018-05-25T07:24:05.289Z,19.20
2018-05-25T07:25:04.765Z,19.20
2018-05-25T07:26:05.461Z,19.20
2018-05-25T07:27:05.424Z,19.20
2018-05-25T07:28:05.054Z,19.20
2018-05-25T07:29:06.154Z,19.20
2018-05-25T07:30:05.081Z,19.20
2018-05-25T07:31:04.965Z,19.10
2018-05-25T07:32:05.571Z,19.10
2018-05-25T07:33:05.450Z,19.10
2018-05-25T07:34:05.018Z,19.10
2018-05-25T07:35:05.622Z,19.10
2018-05-25T07:36:05.658Z,19.10
2018-05-25T07:37:05.581Z,19.10
2018-05-25T07:38:05.414Z,19.10
2018-05-25T07:39:05.311Z,19.10
2018-05-25T07:40:05.229Z,19.10
2018-05-25T07:41:04.843Z,19.10
2018-05-25T07:42:04.934Z,19.10
2018-05-25T07:43:04.898Z,19.10
2018-05-25T07:44:04.872Z,19.10
2018-05-25T07:45:04.709Z,19.10
2018-05-25T07:46:04.808Z,19.10
2018-05-25T07:47:05.184Z,19.10
2018-05-25T07:48:05.920Z,19.10
2018-05-25T07:49:05.082Z,19.10
2018-05-25T07:50:04.936Z,19.10
2018-05-25T07:51:04.876Z,19.10
2018-05-25T07:52:04.766Z,19.10
2018-05-25T07:53:04.955Z,19.10
2018-05-25T07:54:05.634Z,19.10
2018-05-25T07:55:05.704Z,19.10
2018-05-25T07:56:05.202Z,19.10
2018-05-25T07:57:05.380Z,19.10
2018-05-25T07:58:04.978Z,19.10
2018-05-25T07:59:05.193Z,19.10
2018-05-25T08:00:05.171Z,19.10
2018-05-25T08:01:05.450Z,19.10
2018-05-25T08:02:06.563Z,19.20
2018-05-25T08:03:04.818Z,19.20
2018-05-25T08:04:05.527Z,19.20
2018-05-25T08:05:05.221Z,19.10
2018-05-25T08:06:04.895Z,19.20
2018-05-25T08:07:04.922Z,19.20
2018-05-25T08:08:04.936Z,19.20
2018-05-25T08:09:05.532Z,19.20
2018-05-25T08:10:05.042Z,19.20
2018-05-25T08:11:05.138Z,19.20
2018-05-25T08:12:04.871Z,19.20
2018-05-25T08:13:05.223Z,19.20
2018-05-25T08:14:05.287Z,19.10
2018-05-25T08:15:05.075Z,19.10
2018-05-25T08:16:04.933Z,19.10
2018-05-25T08:17:04.960Z,19.10
2018-05-25T08:18:05.621Z,19.10
2018-05-25T08:19:04.716Z,19.10
2018-05-25T08:20:05.346Z,19.10
2018-05-25T08:21:05.139Z,19.10
2018-05-25T08:22:04.989Z,19.10
2018-05-25T08:23:05.341Z,19.10
2018-05-25T08:24:05.160Z,19.00
2018-05-25T08:25:04.961Z,19.00
2018-05-25T08:26:05.614Z,19.00
2018-05-25T08:27:05.589Z,19.00
2018-05-25T08:28:05.378Z,19.00
2018-05-25T08:29:05.500Z,19.00
2018-05-25T08:30:05.503Z,19.10
2018-05-25T08:31:05.275Z,19.10
2018-05-25T08:32:05.037Z,19.10
2018-05-25T08:33:04.738Z,19.10
2018-05-25T08:34:05.105Z,19.10
2018-05-25T08:35:05.396Z,19.10
2018-05-25T08:36:05.271Z,19.10
2018-05-25T08:37:05.036Z,19.20
2018-05-25T08:38:05.152Z,19.20
2018-05-25T08:39:05.148Z,19.20
2018-05-25T08:40:05.212Z,19.20
2018-05-25T08:41:04.690Z,19.20
2018-05-25T08:42:05.019Z,19.30
2018-05-25T08:43:04.712Z,19.30
2018-05-25T08:44:05.630Z,19.30
2018-05-25T08:45:04.715Z,19.30
2018-05-25T08:46:05.275Z,19.40
2018-05-25T08:47:04.899Z,19.40
2018-05-25T08:48:05.629Z,19.40
2018-05-25T08:49:05.525Z,19.50
2018-05-25T08:50:05.725Z,19.50
2018-05-25T08:51:05.422Z,19.50
2018-05-25T08:52:05.555Z,19.50
2018-05-25T08:53:05.394Z,19.60
2018-05-25T08:54:05.303Z,19.60
2018-05-25T08:55:05.333Z,19.70
2018-05-25T08:56:05.073Z,19.70
2018-05-25T08:57:05.513Z,19.80
2018-05-25T08:58:05.607Z,19.80
2018-05-25T08:59:05.092Z,19.90
2018-05-25T09:00:05.123Z,19.90
2018-05-25T09:01:04.881Z,20.00
2018-05-25T09:02:04.975Z,20.00
2018-05-25T09:03:05.557Z,20.00
2018-05-25T09:04:05.379Z,20.10
2018-05-25T09:05:04.769Z,20.10
2018-05-25T09:06:04.827Z,20.10
2018-05-25T09:07:05.516Z,20.20
2018-05-25T09:08:05.299Z,20.20
2018-05-25T09:09:04.766Z,20.20
2018-05-25T09:10:05.219Z,20.20
2018-05-25T09:11:04.747Z,20.30
2018-05-25T09:12:05.266Z,20.30
2018-05-25T09:13:05.010Z,20.30
2018-05-25T09:14:05.471Z,20.30
2018-05-25T09:15:10.049Z,20.30
2018-05-25T09:16:05.431Z,20.40
2018-05-25T09:17:05.499Z,20.40
2018-05-25T09:18:05.295Z,20.40
2018-05-25T09:19:05.011Z,20.40
2018-05-25T09:20:05.407Z,20.50
2018-05-25T09:21:05.154Z,20.50
2018-05-25T09:22:05.555Z,20.50
2018-05-25T09:23:05.166Z,20.50
2018-05-25T09:24:05.398Z,20.50
2018-05-25T09:25:05.531Z,20.60
2018-05-25T09:26:05.664Z,20.60
2018-05-25T09:27:05.284Z,20.60
2018-05-25T09:28:05.176Z,20.60
2018-05-25T09:29:05.007Z,20.60
2018-05-25T09:30:05.132Z,20.60
2018-05-25T09:31:04.984Z,20.60
2018-05-25T09:32:04.863Z,20.60
2018-05-25T09:33:04.695Z,20.60
2018-05-25T09:34:05.405Z,20.60
2018-05-25T09:35:05.121Z,20.60
2018-05-25T09:36:05.054Z,20.50
2018-05-25T09:37:04.892Z,20.50
2018-05-25T09:38:05.496Z,20.50
2018-05-25T09:39:05.577Z,20.50
2018-05-25T09:40:05.401Z,20.50
2018-05-25T09:41:05.111Z,20.50
2018-05-25T09:42:05.010Z,20.60
2018-05-25T09:43:04.757Z,20.60
2018-05-25T09:44:05.016Z,20.60
2018-05-25T09:45:04.901Z,20.60
2018-05-25T09:46:04.714Z,20.60
2018-05-25T09:47:05.536Z,20.60
2018-05-25T09:48:05.337Z,20.60
2018-05-25T09:49:05.580Z,20.60
2018-05-25T09:50:05.608Z,20.70
2018-05-25T09:51:05.352Z,20.60
2018-05-25T09:52:05.132Z,20.60
2018-05-25T09:53:04.691Z,20.70
2018-05-25T09:54:04.793Z,20.70
2018-05-25T09:55:04.636Z,20.70
2018-05-25T09:56:05.455Z,20.70
2018-05-25T09:57:05.500Z,20.70
2018-05-25T09:58:04.899Z,20.70
2018-05-25T09:59:05.456Z,20.70
2018-05-25T10:00:05.435Z,20.80
2018-05-25T10:01:04.685Z,20.80
2018-05-25T10:02:05.289Z,20.80
2018-05-25T10:03:05.031Z,20.80
2018-05-25T10:04:05.215Z,20.80
2018-05-25T10:05:04.677Z,20.90
2018-05-25T10:06:05.334Z,20.90
2018-05-25T10:07:05.150Z,21.00
2018-05-25T10:08:05.620Z,21.00
2018-05-25T10:09:05.373Z,21.00
2018-05-25T10:10:05.599Z,21.00
2018-05-25T10:11:05.489Z,21.00
2018-05-25T10:12:05.294Z,21.10
2018-05-25T10:13:05.473Z,21.10
2018-05-25T10:14:05.297Z,21.10
2018-05-25T10:15:05.238Z,21.10
2018-05-25T10:16:05.561Z,21.10
2018-05-25T10:17:05.523Z,21.10
2018-05-25T10:18:05.578Z,21.20
2018-05-25T10:19:05.139Z,21.20
2018-05-25T10:20:05.230Z,21.20
2018-05-25T10:21:04.976Z,21.20
2018-05-25T10:22:05.522Z,21.30
2018-05-25T10:23:05.811Z,21.30
2018-05-25T10:24:04.799Z,21.30
2018-05-25T10:25:05.710Z,21.30
2018-05-25T10:26:05.314Z,21.30
2018-05-25T10:27:04.966Z,21.40
2018-05-25T10:28:05.274Z,21.40
2018-05-25T10:29:05.409Z,21.40
2018-05-25T10:30:04.831Z,21.40
2018-05-25T10:31:05.492Z,21.40
2018-05-25T10:32:05.277Z,21.40
2018-05-25T10:33:06.101Z,21.40
2018-05-25T10:34:04.834Z,21.30
2018-05-25T10:35:04.886Z,21.30
2018-05-25T10:36:05.550Z,21.30
2018-05-25T10:37:04.763Z,21.30
2018-05-25T10:38:05.345Z,21.20
2018-05-25T10:39:04.927Z,21.20
2018-05-25T10:40:05.110Z,21.20
2018-05-25T10:41:05.028Z,21.20
2018-05-25T10:42:04.834Z,21.10
2018-05-25T10:43:04.868Z,21.10
2018-05-25T10:44:04.906Z,21.10
2018-05-25T10:45:04.672Z,21.10
2018-05-25T10:46:06.308Z,21.10
2018-05-25T10:47:05.575Z,21.10
2018-05-25T10:48:05.712Z,21.20
2018-05-25T10:49:04.885Z,21.20
2018-05-25T10:50:05.635Z,21.20
2018-05-25T10:51:05.155Z,21.20
2018-05-25T10:52:05.299Z,21.20
2018-05-25T10:53:04.885Z,21.30
2018-05-25T10:54:04.685Z,21.30
2018-05-25T10:55:05.422Z,21.30
2018-05-25T10:56:04.675Z,21.30
2018-05-25T10:57:04.793Z,21.30
2018-05-25T10:58:04.949Z,21.30
2018-05-25T10:59:05.638Z,21.30
2018-05-25T11:00:05.568Z,21.30
2018-05-25T11:01:05.145Z,21.40
2018-05-25T11:02:05.658Z,21.30
2018-05-25T11:03:05.748Z,21.40
2018-05-25T11:04:04.779Z,21.40
2018-05-25T11:05:05.572Z,21.40
2018-05-25T11:06:05.175Z,21.30
2018-05-25T11:07:05.144Z,21.30
2018-05-25T11:08:05.194Z,21.30
2018-05-25T11:09:05.073Z,21.30
2018-05-25T11:10:05.692Z,21.30
2018-05-25T11:11:05.529Z,21.40
2018-05-25T11:12:05.665Z,21.40
2018-05-25T11:13:05.748Z,21.40
2018-05-25T11:14:05.274Z,21.40
2018-05-25T11:15:04.948Z,21.40
2018-05-25T11:16:05.439Z,21.40
2018-05-25T11:17:05.243Z,21.40
2018-05-25T11:18:05.486Z,21.40
2018-05-25T11:19:05.331Z,21.40
2018-05-25T11:20:05.356Z,21.50
2018-05-25T11:21:05.530Z,21.50
2018-05-25T11:22:05.401Z,21.50
2018-05-25T11:23:10.161Z,21.50
2018-05-25T11:24:04.895Z,21.60
2018-05-25T11:25:05.034Z,21.60
2018-05-25T11:26:05.088Z,21.60
2018-05-25T11:27:05.634Z,21.60
2018-05-25T11:28:05.455Z,21.60
2018-05-25T11:29:05.038Z,21.60
2018-05-25T11:30:04.961Z,21.70
2018-05-25T11:31:04.969Z,21.70
2018-05-25T11:32:05.141Z,21.70
2018-05-25T11:33:05.410Z,21.70
2018-05-25T11:34:05.069Z,21.70
2018-05-25T11:35:04.903Z,21.70
2018-05-25T11:36:05.364Z,21.70
2018-05-25T11:37:04.725Z,21.70
2018-05-25T11:38:05.412Z,21.70
2018-05-25T11:39:05.449Z,21.70
2018-05-25T11:40:05.271Z,21.70
2018-05-25T11:41:04.782Z,21.70
2018-05-25T11:42:05.614Z,21.70
2018-05-25T11:43:04.854Z,21.70
2018-05-25T11:44:04.844Z,21.70
2018-05-25T11:45:04.851Z,21.70
2018-05-25T11:46:04.963Z,21.70
2018-05-25T11:47:05.107Z,21.70
2018-05-25T11:48:04.972Z,21.70
2018-05-25T11:49:05.134Z,21.60
2018-05-25T11:50:05.311Z,21.60
2018-05-25T11:51:05.229Z,21.60
2018-05-25T11:52:04.718Z,21.60
2018-05-25T11:53:05.198Z,21.60
2018-05-25T11:54:10.291Z,21.60
2018-05-25T11:55:05.161Z,21.60
2018-05-25T11:56:05.165Z,21.70
2018-05-25T11:57:04.873Z,21.60
2018-05-25T11:58:04.700Z,21.60
2018-05-25T11:59:05.286Z,21.60
2018-05-25T12:00:04.785Z,21.60
2018-05-25T12:01:04.890Z,21.60
2018-05-25T12:02:04.881Z,21.60
2018-05-25T12:03:05.360Z,21.60
2018-05-25T12:04:05.021Z,21.60
2018-05-25T12:05:04.799Z,21.60
2018-05-25T12:06:05.399Z,21.60
2018-05-25T12:07:05.550Z,21.60
2018-05-25T12:08:05.277Z,21.60
2018-05-25T12:09:05.093Z,21.60
2018-05-25T12:10:05.341Z,21.60
2018-05-25T12:11:05.601Z,21.60
2018-05-25T12:12:05.647Z,21.60
2018-05-25T12:13:05.319Z,21.60
2018-05-25T12:14:05.187Z,21.60
2018-05-25T12:15:05.620Z,21.60
2018-05-25T12:16:05.286Z,21.60
2018-05-25T12:17:04.984Z,21.60
2018-05-25T12:18:04.935Z,21.60
2018-05-25T12:19:05.549Z,21.60
2018-05-25T12:20:05.389Z,21.60
2018-05-25T12:21:04.989Z,21.60
2018-05-25T12:22:05.471Z,21.60
2018-05-25T12:23:05.449Z,21.60
2018-05-25T12:24:05.041Z,21.60
2018-05-25T12:25:05.272Z,21.60
2018-05-25T12:26:05.241Z,21.60
2018-05-25T12:27:05.336Z,21.70
2018-05-25T12:28:04.913Z,21.70
2018-05-25T12:29:05.544Z,21.70
2018-05-25T12:30:04.769Z,21.70
2018-05-25T12:31:05.258Z,21.70
2018-05-25T12:32:05.264Z,21.80
2018-05-25T12:33:05.285Z,21.80
2018-05-25T12:34:05.562Z,21.90
2018-05-25T12:35:05.549Z,21.90
2018-05-25T12:36:05.646Z,21.90
2018-05-25T12:37:04.887Z,22.00
2018-05-25T12:38:04.776Z,22.00
2018-05-25T12:39:05.378Z,22.00
2018-05-25T12:40:05.351Z,22.10
2018-05-25T12:41:05.200Z,22.10
2018-05-25T12:42:05.056Z,22.20
2018-05-25T12:43:05.349Z,22.30
2018-05-25T12:44:05.036Z,22.40
2018-05-25T12:45:05.503Z,22.40
2018-05-25T12:46:05.152Z,22.40
2018-05-25T12:47:05.129Z,22.40
2018-05-25T12:48:04.755Z,22.50
2018-05-25T12:49:05.381Z,22.50
2018-05-25T12:50:06.442Z,22.50
2018-05-25T12:51:05.572Z,22.60
2018-05-25T12:52:05.588Z,22.60